Time;durP1;ratioP1;P1;durP2;ratioP2;P2;SDS_P1;SDS_P2;PMS_P1;PMS_P2;Temp;Humidity;BMP_temperature;BMP_pressure;BME280_temperature;BME280_humidity;BME280_pressure;Samples;Min_cycle;Max_cycle;Signal;HPM_P1;HPM_P2
2022/10/21 00:00:57;;;;;;;;;;;16.30;99.90;;;;;;5056542;28;19905;-76
2022/10/21 00:03:23;;;;;;;;;;;16.20;99.90;;;;;;5056141;28;19905;-76
2022/10/21 00:05:49;;;;;;;;;;;16.20;99.90;;;;;;5056365;28;20313;-76
2022/10/21 00:08:15;;;;;;;;;;;16.20;99.90;;;;;;5056348;28;19912;-75
2022/10/21 00:10:40;;;;;;;;;;;16.10;99.90;;;;;;5056328;28;19904;-75
2022/10/21 00:13:06;;;;;;;;;;;16.10;99.90;;;;;;5055970;28;20387;-74
2022/10/21 00:15:32;;;;;;;;;;;16.10;99.90;;;;;;5055984;28;19905;-73
2022/10/21 00:17:57;;;;;;;;;;;16.10;99.90;;;;;;5055792;28;19908;-74
2022/10/21 00:20:23;;;;;;;;;;;16.10;99.90;;;;;;5056091;28;19954;-75
2022/10/21 00:22:48;;;;;;;;;;;16.10;99.90;;;;;;5055800;28;20007;-75
2022/10/21 00:25:13;;;;;;;;;;;16.00;99.90;;;;;;5055706;28;19909;-75
2022/10/21 00:27:39;;;;;;;;;;;16.10;99.90;;;;;;5055989;28;19928;-75
2022/10/21 00:30:05;;;;;;;;;;;16.00;99.90;;;;;;5055637;28;19904;-74
2022/10/21 00:32:31;;;;;;;;;;;16.10;99.90;;;;;;5055335;28;19944;-73
2022/10/21 00:34:56;;;;;;;;;;;16.10;99.90;;;;;;5055888;28;19944;-72
2022/10/21 00:37:22;;;;;;;;;;;16.00;99.90;;;;;;5056013;28;19912;-73
2022/10/21 00:39:47;;;;;;;;;;;16.00;99.90;;;;;;5056026;28;19958;-73
2022/10/21 00:42:15;;;;;;;;;;;16.00;99.90;;;;;;5055722;28;19909;-74
2022/10/21 00:44:40;;;;;;;;;;;16.10;99.90;;;;;;5055409;28;19905;-75
2022/10/21 00:47:11;;;;;;;;;;;16.00;99.90;;;;;;5055878;28;19904;-73
2022/10/21 00:49:40;;;;;;;;;;;16.00;99.90;;;;;;5055311;28;20276;-72
2022/10/21 00:52:07;;;;;;;;;;;16.00;99.90;;;;;;5055490;28;19905;-75
2022/10/21 00:54:33;;;;;;;;;;;16.10;99.90;;;;;;5055151;28;20015;-75
2022/10/21 00:56:58;;;;;;;;;;;16.10;99.90;;;;;;5055403;28;19951;-73
2022/10/21 00:59:28;;;;;;;;;;;16.10;99.90;;;;;;5055281;28;20003;-74
2022/10/21 01:01:53;;;;;;;;;;;16.10;99.90;;;;;;5055300;28;19911;-75
2022/10/21 01:04:19;;;;;;;;;;;16.10;99.90;;;;;;5054582;28;20272;-73
2022/10/21 01:06:45;;;;;;;;;;;16.10;99.90;;;;;;5055219;28;19908;-74
2022/10/21 01:09:11;;;;;;;;;;;16.10;99.90;;;;;;5054885;28;20000;-73
2022/10/21 01:11:55;;;;;;;;;;;16.10;99.90;;;;;;5055104;28;20450;-72
2022/10/21 01:14:20;;;;;;;;;;;16.20;99.90;;;;;;5054805;28;19909;-75
2022/10/21 01:16:51;;;;;;;;;;;16.20;99.90;;;;;;5055004;28;19951;-73
2022/10/21 01:19:29;;;;;;;;;;;16.10;99.90;;;;;;5054592;28;19916;-75
2022/10/21 01:22:03;;;;;;;;;;;16.20;99.90;;;;;;5054887;28;19911;-74
2022/10/21 01:24:47;;;;;;;;;;;16.20;99.90;;;;;;5054930;28;19963;-74
2022/10/21 01:27:22;;;;;;;;;;;16.20;99.90;;;;;;5054879;28;20317;-74
2022/10/21 01:30:06;;;;;;;;;;;16.10;99.90;;;;;;5036621;28;20289;-73
2022/10/21 01:32:42;;;;;;;;;;;16.10;99.90;;;;;;5054936;28;20254;-76
2022/10/21 01:35:11;;;;;;;;;;;16.10;99.90;;;;;;5054230;28;19948;-74
2022/10/21 01:38:02;;;;;;;;;;;16.10;99.90;;;;;;5054638;28;19917;-75
2022/10/21 01:40:48;;;;;;;;;;;16.10;99.90;;;;;;5032332;28;20322;-75
2022/10/21 01:43:26;;;;;;;;;;;16.10;99.90;;;;;;5053554;28;19955;-72
2022/10/21 01:45:54;;;;;;;;;;;16.10;99.90;;;;;;5054531;28;19911;-75
2022/10/21 01:48:22;;;;;;;;;;;16.10;99.90;;;;;;5054186;28;19916;-73
2022/10/21 01:50:51;;;;;;;;;;;16.10;99.90;;;;;;5054463;28;20004;-75
2022/10/21 01:53:17;;;;;;;;;;;16.10;99.90;;;;;;5054114;28;19905;-72
2022/10/21 01:55:44;;;;;;;;;;;16.10;99.90;;;;;;5054058;28;19904;-74
2022/10/21 01:58:22;;;;;;;;;;;16.10;99.90;;;;;;5053963;28;19909;-75
2022/10/21 02:00:48;;;;;;;;;;;16.10;99.90;;;;;;5054571;28;19909;-74
2022/10/21 02:03:16;;;;;;;;;;;16.10;99.90;;;;;;5053924;28;19909;-73
2022/10/21 02:05:41;;;;;;;;;;;16.10;99.90;;;;;;5053871;28;20003;-73
2022/10/21 02:08:07;;;;;;;;;;;16.10;99.90;;;;;;5053876;28;20005;-73
2022/10/21 02:10:34;;;;;;;;;;;16.00;99.90;;;;;;5054121;28;19905;-76
2022/10/21 02:13:02;;;;;;;;;;;16.10;99.90;;;;;;5053795;28;19991;-75
2022/10/21 02:15:28;;;;;;;;;;;16.10;99.90;;;;;;5053309;28;19911;-74
2022/10/21 02:17:57;;;;;;;;;;;16.10;99.90;;;;;;5035861;28;19959;-74
2022/10/21 02:20:25;;;;;;;;;;;16.10;99.90;;;;;;5053960;28;19904;-73
2022/10/21 02:22:50;;;;;;;;;;;16.10;99.90;;;;;;5053671;28;19909;-73
2022/10/21 02:25:19;;;;;;;;;;;16.10;99.90;;;;;;5053912;28;19936;-74
2022/10/21 02:27:45;;;;;;;;;;;16.10;99.90;;;;;;5053611;28;19904;-74
2022/10/21 02:30:11;;;;;;;;;;;16.00;99.90;;;;;;5053606;28;19904;-73
2022/10/21 02:32:41;;;;;;;;;;;16.10;99.90;;;;;;5053774;28;20275;-75
2022/10/21 02:35:25;;;;;;;;;;;16.10;99.90;;;;;;5053355;28;19905;-76
2022/10/21 02:37:50;;;;;;;;;;;16.10;99.90;;;;;;5054060;28;20011;-73
2022/10/21 02:40:19;;;;;;;;;;;16.00;99.90;;;;;;5054022;28;19956;-76
2022/10/21 02:42:47;;;;;;;;;;;16.00;99.90;;;;;;5035892;28;19917;-74
2022/10/21 02:45:15;;;;;;;;;;;16.00;99.90;;;;;;5053751;28;19905;-74
2022/10/21 02:47:41;;;;;;;;;;;16.00;99.90;;;;;;5053396;28;20417;-74
2022/10/21 02:50:07;;;;;;;;;;;16.00;99.90;;;;;;5053402;28;19991;-75
2022/10/21 02:52:33;;;;;;;;;;;15.90;99.90;;;;;;5053359;28;20039;-72
2022/10/21 02:54:58;;;;;;;;;;;16.00;99.90;;;;;;5053622;28;19932;-72
2022/10/21 02:57:24;;;;;;;;;;;15.90;99.90;;;;;;5053190;28;20428;-76
2022/10/21 02:59:49;;;;;;;;;;;15.90;99.90;;;;;;5053595;28;20007;-73
2022/10/21 03:02:14;;;;;;;;;;;15.90;99.90;;;;;;5053539;28;19905;-75
2022/10/21 03:04:40;;;;;;;;;;;15.90;99.90;;;;;;5053261;28;19905;-75
2022/10/21 03:07:05;;;;;;;;;;;15.80;99.90;;;;;;5053548;28;19905;-74
2022/10/21 03:09:31;;;;;;;;;;;15.80;99.90;;;;;;5035316;28;20360;-75
2022/10/21 03:11:56;;;;;;;;;;;15.90;99.90;;;;;;5053175;28;19958;-72
2022/10/21 03:14:22;;;;;;;;;;;15.80;99.90;;;;;;5053489;28;19905;-73
2022/10/21 03:16:47;;;;;;;;;;;15.80;99.90;;;;;;5053165;28;19982;-72
2022/10/21 03:19:13;;;;;;;;;;;15.80;99.90;;;;;;5053041;28;19919;-72
2022/10/21 03:21:38;;;;;;;;;;;15.80;99.90;;;;;;5053079;28;19915;-74
2022/10/21 03:24:04;;;;;;;;;;;15.80;99.90;;;;;;5052844;28;19912;-73
2022/10/21 03:26:30;;;;;;;;;;;15.80;99.90;;;;;;5054579;28;20057;-75
2022/10/21 03:28:55;;;;;;;;;;;15.90;99.90;;;;;;5057101;28;20347;-74
2022/10/21 03:31:21;;;;;;;;;;;15.80;99.90;;;;;;5056823;28;19959;-75
2022/10/21 03:33:46;;;;;;;;;;;15.90;99.90;;;;;;5056669;28;19983;-73
2022/10/21 03:36:11;;;;;;;;;;;15.90;99.90;;;;;;5056617;28;20287;-75
2022/10/21 03:38:37;;;;;;;;;;;15.90;99.90;;;;;;5057356;28;19912;-76
2022/10/21 03:41:02;;;;;;;;;;;15.90;99.90;;;;;;5056911;28;19904;-72
2022/10/21 03:43:28;;;;;;;;;;;15.90;99.90;;;;;;5056545;28;19908;-73
2022/10/21 03:45:53;;;;;;;;;;;15.90;99.90;;;;;;5056791;28;19905;-73
2022/10/21 03:48:19;;;;;;;;;;;16.00;99.90;;;;;;5056435;28;20371;-76
2022/10/21 03:50:44;;;;;;;;;;;16.00;99.90;;;;;;5056420;28;19947;-75
2022/10/21 03:53:10;;;;;;;;;;;16.00;99.90;;;;;;5056936;28;19905;-72
2022/10/21 03:55:35;;;;;;;;;;;16.00;99.90;;;;;;5056335;28;19905;-74
2022/10/21 03:58:01;;;;;;;;;;;16.00;99.90;;;;;;5056770;28;19908;-73
2022/10/21 04:00:26;;;;;;;;;;;16.00;99.90;;;;;;5056207;28;19905;-72
2022/10/21 04:02:52;;;;;;;;;;;16.00;99.90;;;;;;5056462;28;19904;-76
2022/10/21 04:05:17;;;;;;;;;;;16.10;99.90;;;;;;5056095;28;19912;-73
2022/10/21 04:07:43;;;;;;;;;;;16.10;99.90;;;;;;5056052;28;19905;-74
2022/10/21 04:10:09;;;;;;;;;;;16.10;99.90;;;;;;5056278;28;20397;-73
2022/10/21 04:12:34;;;;;;;;;;;16.10;99.90;;;;;;5055991;28;19959;-74
2022/10/21 04:15:00;;;;;;;;;;;16.10;99.90;;;;;;5056199;28;20002;-73
2022/10/21 04:17:26;;;;;;;;;;;16.10;99.90;;;;;;5055819;28;20249;-74
2022/10/21 04:19:51;;;;;;;;;;;16.10;99.90;;;;;;5055840;28;20379;-75
2022/10/21 04:22:17;;;;;;;;;;;16.20;99.90;;;;;;5055821;28;19913;-75
2022/10/21 04:24:42;;;;;;;;;;;16.20;99.90;;;;;;5056047;28;19987;-75
2022/10/21 04:27:08;;;;;;;;;;;16.20;99.90;;;;;;5055690;28;19911;-73
2022/10/21 04:29:33;;;;;;;;;;;16.20;99.90;;;;;;5055896;28;19909;-74
2022/10/21 04:31:59;;;;;;;;;;;16.20;99.90;;;;;;5037737;28;19909;-75
2022/10/21 04:34:24;;;;;;;;;;;16.20;99.90;;;;;;5055556;28;19905;-73
2022/10/21 04:36:50;;;;;;;;;;;16.20;99.90;;;;;;5055202;28;20420;-75
2022/10/21 04:39:15;;;;;;;;;;;16.30;99.90;;;;;;5055711;28;19964;-74
2022/10/21 04:41:41;;;;;;;;;;;16.30;99.90;;;;;;5055705;28;19911;-72
2022/10/21 04:44:06;;;;;;;;;;;16.30;99.90;;;;;;5055456;28;20284;-74
2022/10/21 04:46:32;;;;;;;;;;;16.20;99.90;;;;;;5055367;28;20292;-75
2022/10/21 04:48:57;;;;;;;;;;;16.30;99.90;;;;;;5055632;28;20000;-76
2022/10/21 04:51:23;;;;;;;;;;;16.30;99.90;;;;;;5055257;28;19912;-74
2022/10/21 04:53:48;;;;;;;;;;;16.30;99.90;;;;;;5055186;28;19909;-75
2022/10/21 04:56:14;;;;;;;;;;;16.30;99.90;;;;;;5055124;28;19909;-75
2022/10/21 04:58:39;;;;;;;;;;;16.30;99.90;;;;;;5055327;28;19931;-75
2022/10/21 05:01:05;;;;;;;;;;;16.30;99.90;;;;;;5055041;28;20407;-73
2022/10/21 05:03:30;;;;;;;;;;;16.30;99.90;;;;;;5055576;28;19905;-73
2022/10/21 05:05:56;;;;;;;;;;;16.20;99.90;;;;;;5054998;28;19968;-75
2022/10/21 05:08:21;;;;;;;;;;;16.20;99.90;;;;;;5055203;28;20288;-74
2022/10/21 05:10:47;;;;;;;;;;;16.20;99.90;;;;;;5055139;28;19912;-73
2022/10/21 05:13:12;;;;;;;;;;;16.20;99.90;;;;;;5055093;28;19905;-74
2022/10/21 05:15:38;;;;;;;;;;;16.20;99.90;;;;;;5054768;28;19908;-74
2022/10/21 05:18:03;;;;;;;;;;;16.10;99.90;;;;;;5055236;28;19908;-74
2022/10/21 05:20:29;;;;;;;;;;;16.10;99.90;;;;;;5054765;28;19908;-75
2022/10/21 05:22:54;;;;;;;;;;;16.10;99.90;;;;;;5054429;28;19905;-75
2022/10/21 05:25:20;;;;;;;;;;;16.10;99.90;;;;;;5054666;28;19908;-75
2022/10/21 05:27:46;;;;;;;;;;;16.10;99.90;;;;;;5054614;28;20364;-74
2022/10/21 05:30:12;;;;;;;;;;;16.10;99.90;;;;;;5054809;28;20271;-73
2022/10/21 05:32:38;;;;;;;;;;;16.10;99.90;;;;;;5054701;28;19905;-74
2022/10/21 05:35:03;;;;;;;;;;;16.10;99.90;;;;;;5054198;28;19972;-74
2022/10/21 05:37:29;;;;;;;;;;;16.10;99.90;;;;;;5054893;28;19970;-73
2022/10/21 05:39:54;;;;;;;;;;;16.10;99.90;;;;;;5055112;28;19905;-75
2022/10/21 05:42:20;;;;;;;;;;;16.10;99.90;;;;;;5054894;28;19955;-75
2022/10/21 05:44:45;;;;;;;;;;;16.10;99.90;;;;;;5054296;28;20280;-73
2022/10/21 05:47:11;;;;;;;;;;;16.00;99.90;;;;;;5054496;28;19909;-74
2022/10/21 05:49:36;;;;;;;;;;;16.10;99.90;;;;;;5054118;28;20277;-74
2022/10/21 05:52:02;;;;;;;;;;;16.10;99.90;;;;;;5054108;28;19912;-74
2022/10/21 05:54:27;;;;;;;;;;;16.10;99.90;;;;;;5054623;28;19912;-73
2022/10/21 05:56:56;;;;;;;;;;;16.10;99.90;;;;;;5054279;28;20292;-75
2022/10/21 05:59:22;;;;;;;;;;;16.10;99.90;;;;;;5053973;28;19909;-75
2022/10/21 06:01:48;;;;;;;;;;;16.00;99.90;;;;;;5054587;28;19904;-73
2022/10/21 06:04:13;;;;;;;;;;;16.10;99.90;;;;;;5053927;28;19908;-75
2022/10/21 06:06:38;;;;;;;;;;;16.10;99.90;;;;;;5053642;28;19959;-75
2022/10/21 06:09:04;;;;;;;;;;;16.10;99.90;;;;;;5054129;28;19905;-75
2022/10/21 06:11:30;;;;;;;;;;;16.10;99.90;;;;;;5053892;28;19912;-75
2022/10/21 06:13:56;;;;;;;;;;;16.10;99.90;;;;;;5053891;28;19908;-74
2022/10/21 06:16:21;;;;;;;;;;;16.10;99.90;;;;;;5053820;28;20437;-74
2022/10/21 06:18:47;;;;;;;;;;;16.10;99.90;;;;;;5035764;28;20285;-75
2022/10/21 06:21:12;;;;;;;;;;;16.10;99.90;;;;;;5053701;28;19951;-75
2022/10/21 06:23:38;;;;;;;;;;;16.10;99.90;;;;;;5053700;28;19905;-74
2022/10/21 06:26:06;;;;;;;;;;;16.10;99.90;;;;;;5053955;28;20284;-73
2022/10/21 06:28:33;;;;;;;;;;;16.10;99.90;;;;;;5053561;28;19904;-73
2022/10/21 06:30:58;;;;;;;;;;;16.20;99.90;;;;;;5053915;28;19905;-74
2022/10/21 06:33:24;;;;;;;;;;;16.20;99.90;;;;;;5053500;28;19927;-73
2022/10/21 06:35:50;;;;;;;;;;;16.20;99.90;;;;;;5053522;28;19919;-75
2022/10/21 06:38:15;;;;;;;;;;;16.20;99.90;;;;;;5053439;28;19919;-76
2022/10/21 06:40:41;;;;;;;;;;;16.30;99.90;;;;;;5054036;28;19952;-74
2022/10/21 06:43:07;;;;;;;;;;;16.30;99.90;;;;;;5053764;28;20375;-76
2022/10/21 06:45:32;;;;;;;;;;;16.30;99.90;;;;;;5053434;28;19908;-75
2022/10/21 06:47:58;;;;;;;;;;;16.30;99.90;;;;;;5052724;28;19909;-75
2022/10/21 06:50:23;;;;;;;;;;;16.30;99.90;;;;;;5052131;28;19909;-75
2022/10/21 06:52:49;;;;;;;;;;;16.40;99.90;;;;;;5053371;28;19952;-76
2022/10/21 06:55:15;;;;;;;;;;;16.40;99.90;;;;;;5053680;28;20311;-79
2022/10/21 06:57:41;;;;;;;;;;;16.40;99.90;;;;;;5052632;28;19916;-75
2022/10/21 07:00:07;;;;;;;;;;;16.40;99.90;;;;;;5052615;28;19909;-78
2022/10/21 07:02:32;;;;;;;;;;;16.40;99.90;;;;;;5052496;28;19909;-74
2022/10/21 07:04:58;;;;;;;;;;;16.40;99.90;;;;;;5057371;28;20300;-75
2022/10/21 07:07:24;;;;;;;;;;;16.40;99.90;;;;;;5057527;28;19904;-73
2022/10/21 07:09:49;;;;;;;;;;;16.40;99.90;;;;;;5057712;28;20015;-74
2022/10/21 07:12:15;;;;;;;;;;;16.50;99.90;;;;;;5057565;28;19905;-74
2022/10/21 07:14:40;;;;;;;;;;;16.50;99.90;;;;;;5057182;28;20042;-73
2022/10/21 07:17:06;;;;;;;;;;;16.60;99.90;;;;;;5057491;28;19912;-77
2022/10/21 07:19:31;;;;;;;;;;;16.60;99.90;;;;;;5056962;28;19912;-74
2022/10/21 07:21:57;;;;;;;;;;;16.60;99.90;;;;;;5057396;28;19996;-73
2022/10/21 07:24:22;;;;;;;;;;;16.60;99.90;;;;;;5057041;28;19912;-74
2022/10/21 07:26:48;;;;;;;;;;;16.60;99.90;;;;;;5057489;28;19905;-75
2022/10/21 07:29:13;;;;;;;;;;;16.60;99.90;;;;;;5056801;28;19916;-76
2022/10/21 07:31:39;;;;;;;;;;;16.60;99.90;;;;;;5056741;28;19955;-72
2022/10/21 07:34:07;;;;;;;;;;;16.70;99.90;;;;;;5056681;28;19928;-75
2022/10/21 07:36:34;;;;;;;;;;;16.70;99.90;;;;;;5056514;28;19912;-75
2022/10/21 07:39:01;;;;;;;;;;;16.80;99.90;;;;;;5057441;28;19917;-74
2022/10/21 07:41:29;;;;;;;;;;;16.80;99.90;;;;;;5056609;28;19905;-73
2022/10/21 07:43:54;;;;;;;;;;;16.80;99.90;;;;;;5056600;28;19904;-73
2022/10/21 07:46:20;;;;;;;;;;;16.80;99.90;;;;;;5056521;28;19912;-73
2022/10/21 07:48:46;;;;;;;;;;;16.80;99.90;;;;;;5056491;28;20378;-73
2022/10/21 07:51:13;;;;;;;;;;;16.80;99.90;;;;;;5056444;28;19905;-73
2022/10/21 07:53:39;;;;;;;;;;;16.70;99.90;;;;;;5056958;28;20080;-72
2022/10/21 07:56:10;;;;;;;;;;;16.80;99.90;;;;;;5056342;28;19996;-74
2022/10/21 07:58:35;;;;;;;;;;;16.80;99.90;;;;;;5056542;28;20360;-72
2022/10/21 08:01:02;;;;;;;;;;;16.90;99.90;;;;;;5056206;28;19911;-72
2022/10/21 08:03:27;;;;;;;;;;;16.90;99.90;;;;;;5056515;28;19904;-73
2022/10/21 08:05:53;;;;;;;;;;;17.00;99.90;;;;;;5056140;28;19927;-73
2022/10/21 08:08:22;;;;;;;;;;;17.00;99.90;;;;;;5056342;28;19909;-73
2022/10/21 08:10:49;;;;;;;;;;;17.00;99.90;;;;;;5056008;28;20307;-72
2022/10/21 08:13:15;;;;;;;;;;;17.10;99.90;;;;;;5036810;28;20003;-73
2022/10/21 08:15:44;;;;;;;;;;;17.20;99.90;;;;;;5056005;28;19908;-73
2022/10/21 08:18:10;;;;;;;;;;;17.20;99.90;;;;;;5055861;28;20335;-73
2022/10/21 08:20:39;;;;;;;;;;;17.30;99.90;;;;;;5055886;28;19908;-73
2022/10/21 08:23:05;;;;;;;;;;;17.40;99.90;;;;;;5056323;28;19940;-73
2022/10/21 08:25:30;;;;;;;;;;;17.40;99.90;;;;;;5055742;28;19905;-72
2022/10/21 08:27:56;;;;;;;;;;;17.40;99.90;;;;;;5056031;28;19904;-76
2022/10/21 08:30:21;;;;;;;;;;;17.30;99.90;;;;;;5037786;28;19950;-75
2022/10/21 08:32:47;;;;;;;;;;;17.40;99.90;;;;;;5055768;28;20275;-75
2022/10/21 08:35:12;;;;;;;;;;;17.60;99.90;;;;;;5055384;28;19909;-76
2022/10/21 08:37:38;;;;;;;;;;;17.70;99.90;;;;;;5055806;28;19904;-73
2022/10/21 08:40:04;;;;;;;;;;;17.70;99.90;;;;;;5055983;28;19912;-77
2022/10/21 08:42:29;;;;;;;;;;;17.70;99.90;;;;;;5055360;28;19955;-75
2022/10/21 08:44:59;;;;;;;;;;;17.70;99.90;;;;;;5055248;28;19911;-74
2022/10/21 08:47:43;;;;;;;;;;;18.00;99.90;;;;;;5055308;28;20365;-76
2022/10/21 08:50:09;;;;;;;;;;;18.30;99.90;;;;;;5055840;28;20343;-75
2022/10/21 08:52:38;;;;;;;;;;;18.50;99.90;;;;;;5055116;28;19904;-76
2022/10/21 08:55:05;;;;;;;;;;;18.40;99.90;;;;;;5055798;28;19905;-74
2022/10/21 08:57:33;;;;;;;;;;;18.40;99.90;;;;;;5055063;28;19904;-75
2022/10/21 08:59:58;;;;;;;;;;;18.60;99.90;;;;;;5055077;28;20003;-74
2022/10/21 09:02:32;;;;;;;;;;;18.80;99.90;;;;;;5055075;28;20388;-75
2022/10/21 09:05:00;;;;;;;;;;;18.90;99.90;;;;;;5055100;28;19912;-74
2022/10/21 09:07:29;;;;;;;;;;;18.90;99.90;;;;;;5055026;28;19912;-75
2022/10/21 09:09:58;;;;;;;;;;;18.90;99.90;;;;;;5037021;28;19909;-75
2022/10/21 09:12:28;;;;;;;;;;;19.00;99.90;;;;;;5055147;28;19905;-75
2022/10/21 09:14:55;;;;;;;;;;;19.20;99.90;;;;;;5054795;28;19904;-76
2022/10/21 09:17:39;;;;;;;;;;;19.40;99.90;;;;;;5036850;28;19995;-75
2022/10/21 09:20:27;;;;;;;;;;;19.40;99.90;;;;;;5055004;28;19973;-75
2022/10/21 09:22:52;;;;;;;;;;;19.50;99.90;;;;;;5054764;28;19926;-79
2022/10/21 09:25:36;;;;;;;;;;;19.40;99.90;;;;;;5054319;28;19904;-73
2022/10/21 09:28:10;;;;;;;;;;;19.20;99.90;;;;;;5054046;28;19955;-75
2022/10/21 09:30:35;;;;;;;;;;;19.10;99.90;;;;;;5036748;28;19908;-74
2022/10/21 09:33:01;;;;;;;;;;;19.20;99.90;;;;;;5054241;28;19970;-74
2022/10/21 09:35:33;;;;;;;;;;;19.00;99.90;;;;;;5053392;28;19912;-73
2022/10/21 09:38:11;;;;;;;;;;;19.10;99.90;;;;;;5036724;28;19962;-75
2022/10/21 09:40:36;;;;;;;;;;;19.30;99.90;;;;;;5055144;28;19983;-75
2022/10/21 09:43:02;;;;;;;;;;;19.30;99.90;;;;;;5054287;28;19947;-74
2022/10/21 09:45:32;;;;;;;;;;;19.30;99.90;;;;;;5054294;28;19987;-73
2022/10/21 09:48:03;;;;;;;;;;;19.40;99.90;;;;;;5054475;28;19904;-74
2022/10/21 09:50:28;;;;;;;;;;;19.40;99.90;;;;;;5054208;28;19905;-74
2022/10/21 09:52:57;;;;;;;;;;;19.80;99.90;;;;;;5054712;28;20276;-74
2022/10/21 09:55:23;;;;;;;;;;;20.10;99.90;;;;;;5054401;28;19905;-74
2022/10/21 09:57:56;;;;;;;;;;;20.10;99.90;;;;;;5054547;28;19931;-74
2022/10/21 10:00:39;;;;;;;;;;;20.10;99.90;;;;;;5054017;28;19912;-73
2022/10/21 10:03:04;;;;;;;;;;;20.00;99.90;;;;;;5054291;28;19904;-74
2022/10/21 10:05:39;;;;;;;;;;;20.10;99.90;;;;;;5053933;28;20275;-73
2022/10/21 10:08:23;;;;;;;;;;;20.10;99.90;;;;;;5053921;28;19974;-74
2022/10/21 10:10:49;;;;;;;;;;;20.20;99.90;;;;;;5053878;28;19916;-74
2022/10/21 10:13:16;;;;;;;;;;;20.10;99.90;;;;;;5053825;28;19904;-74
2022/10/21 10:15:42;;;;;;;;;;;20.00;99.90;;;;;;5054053;28;19905;-72
2022/10/21 10:18:18;;;;;;;;;;;19.90;99.90;;;;;;5053673;28;19916;-75
2022/10/21 10:20:44;;;;;;;;;;;20.00;99.90;;;;;;5054031;28;19904;-75
2022/10/21 10:23:16;;;;;;;;;;;20.20;99.90;;;;;;5053672;28;20281;-75
2022/10/21 10:25:47;;;;;;;;;;;20.30;99.90;;;;;;5054329;28;19963;-73
2022/10/21 10:28:18;;;;;;;;;;;20.30;99.90;;;;;;5053985;28;19938;-74
2022/10/21 10:30:43;;;;;;;;;;;20.60;99.90;;;;;;5053614;28;20285;-73
2022/10/21 10:33:14;;;;;;;;;;;20.40;99.90;;;;;;5053693;28;19991;-73
2022/10/21 10:35:46;;;;;;;;;;;20.30;99.90;;;;;;5034806;28;19921;-75
2022/10/21 10:38:18;;;;;;;;;;;20.20;99.90;;;;;;5053646;28;19913;-74
2022/10/21 10:40:44;;;;;;;;;;;20.20;99.90;;;;;;5054122;28;19985;-74
2022/10/21 10:43:15;;;;;;;;;;;20.20;99.90;;;;;;5035546;28;19909;-74
2022/10/21 10:45:52;;;;;;;;;;;20.20;99.90;;;;;;5035423;28;19911;-74
2022/10/21 10:48:33;;;;;;;;;;;20.30;99.90;;;;;;5053789;28;19995;-74
2022/10/21 10:50:59;;;;;;;;;;;20.30;99.90;;;;;;5053776;28;19946;-72
2022/10/21 10:53:32;;;;;;;;;;;20.50;99.90;;;;;;5035492;28;19904;-75
2022/10/21 10:56:12;;;;;;;;;;;20.60;99.90;;;;;;5053418;28;19944;-73
2022/10/21 10:58:40;;;;;;;;;;;20.70;99.90;;;;;;5053304;28;20357;-75
2022/10/21 11:01:10;;;;;;;;;;;20.70;99.90;;;;;;5053677;28;19912;-74
2022/10/21 11:03:53;;;;;;;;;;;20.60;99.90;;;;;;5053305;28;20370;-73
2022/10/21 11:06:26;;;;;;;;;;;20.60;99.90;;;;;;5045681;28;19993;-73
2022/10/21 11:08:54;;;;;;;;;;;20.60;99.90;;;;;;5053320;28;19904;-73
2022/10/21 11:11:19;;;;;;;;;;;20.50;99.90;;;;;;5053530;28;19909;-74
2022/10/21 11:13:45;;;;;;;;;;;20.40;99.90;;;;;;5053261;28;20267;-75
2022/10/21 11:16:26;;;;;;;;;;;20.40;99.90;;;;;;5053211;28;19908;-75
2022/10/21 11:18:58;;;;;;;;;;;20.20;99.90;;;;;;5053089;28;19916;-75
2022/10/21 11:21:32;;;;;;;;;;;20.10;99.90;;;;;;5053726;28;19905;-75
2022/10/21 11:24:00;;;;;;;;;;;20.00;99.90;;;;;;5053195;28;19904;-73
2022/10/21 11:26:31;;;;;;;;;;;19.90;99.90;;;;;;5053407;28;19911;-75
2022/10/21 11:29:16;;;;;;;;;;;19.90;99.90;;;;;;5053696;28;20384;-74
2022/10/21 11:32:00;;;;;;;;;;;19.90;99.90;;;;;;5052450;28;19905;-74
2022/10/21 11:34:32;;;;;;;;;;;19.80;99.90;;;;;;5053479;28;19905;-76
2022/10/21 11:37:06;;;;;;;;;;;19.80;99.90;;;;;;5052603;28;19966;-73
2022/10/21 11:39:41;;;;;;;;;;;19.70;99.90;;;;;;5053289;28;19913;-73
2022/10/21 11:42:06;;;;;;;;;;;19.60;99.90;;;;;;5052947;28;20364;-76
2022/10/21 11:44:44;;;;;;;;;;;19.70;99.90;;;;;;5052934;28;19937;-74
2022/10/21 11:47:25;;;;;;;;;;;19.90;99.90;;;;;;5053307;28;19916;-74
2022/10/21 11:49:59;;;;;;;;;;;19.80;99.90;;;;;;5056767;28;19908;-74
2022/10/21 11:52:43;;;;;;;;;;;19.90;99.90;;;;;;5056402;28;19991;-75
2022/10/21 11:55:11;;;;;;;;;;;19.90;99.90;;;;;;5056355;28;19904;-73
2022/10/21 11:57:39;;;;;;;;;;;20.00;99.90;;;;;;5056241;28;19966;-73
2022/10/21 12:00:13;;;;;;;;;;;20.00;99.90;;;;;;5056319;28;19904;-73
2022/10/21 12:02:42;;;;;;;;;;;20.00;99.90;;;;;;5056533;28;19992;-74
2022/10/21 12:05:28;;;;;;;;;;;20.20;99.90;;;;;;5056204;28;19944;-74
2022/10/21 12:07:54;;;;;;;;;;;20.30;99.90;;;;;;5056425;28;20266;-74
2022/10/21 12:10:48;;;;;;;;;;;20.40;99.90;;;;;;5038105;28;19939;-73
2022/10/21 12:13:17;;;;;;;;;;;20.40;99.90;;;;;;4968083;28;19911;-73
2022/10/21 12:16:09;;;;;;;;;;;20.40;99.90;;;;;;5056281;28;19905;-73
2022/10/21 12:18:41;;;;;;;;;;;20.30;99.90;;;;;;5050692;28;19956;-74
2022/10/21 12:21:09;;;;;;;;;;;20.20;99.90;;;;;;5056452;28;19947;-75
2022/10/21 12:23:34;;;;;;;;;;;20.10;99.90;;;;;;5055804;28;19905;-74
2022/10/21 12:26:06;;;;;;;;;;;20.20;99.90;;;;;;5056363;28;19912;-74
2022/10/21 12:28:34;;;;;;;;;;;20.30;99.90;;;;;;5055713;28;20323;-73
2022/10/21 12:31:00;;;;;;;;;;;20.40;99.90;;;;;;5055732;28;19982;-75
2022/10/21 12:33:34;;;;;;;;;;;20.40;99.90;;;;;;5055544;28;20357;-73
2022/10/21 12:36:38;;;;;;;;;;;20.30;99.90;;;;;;5055631;28;20303;-74
2022/10/21 12:39:08;;;;;;;;;;;20.20;99.90;;;;;;5037287;28;20343;-75
2022/10/21 12:41:33;;;;;;;;;;;20.10;99.90;;;;;;5056018;28;19911;-74
2022/10/21 12:44:02;;;;;;;;;;;20.20;99.90;;;;;;5055715;28;19908;-73
2022/10/21 12:46:44;;;;;;;;;;;20.10;99.90;;;;;;5055465;28;19944;-73
2022/10/21 12:49:13;;;;;;;;;;;20.10;99.90;;;;;;5037496;28;19909;-73
2022/10/21 12:51:38;;;;;;;;;;;20.10;99.90;;;;;;5055649;28;20311;-75
2022/10/21 12:54:11;;;;;;;;;;;20.30;99.90;;;;;;5055290;28;19904;-73
2022/10/21 12:56:42;;;;;;;;;;;20.40;99.90;;;;;;5054931;28;19948;-73
2022/10/21 12:59:30;;;;;;;;;;;20.50;99.90;;;;;;5055058;28;20344;-73
2022/10/21 13:02:04;;;;;;;;;;;20.50;99.90;;;;;;5055424;28;19904;-74
2022/10/21 13:04:32;;;;;;;;;;;20.50;99.90;;;;;;5055629;28;19915;-73
2022/10/21 13:07:26;;;;;;;;;;;20.40;99.90;;;;;;5055041;28;19909;-75
2022/10/21 13:09:52;;;;;;;;;;;20.40;99.90;;;;;;5055596;28;19905;-75
2022/10/21 13:12:23;;;;;;;;;;;20.30;99.90;;;;;;5054951;28;19904;-74
2022/10/21 13:15:21;;;;;;;;;;;20.50;99.90;;;;;;5055164;28;19912;-75
2022/10/21 13:17:48;;;;;;;;;;;20.40;99.90;;;;;;5054771;28;19958;-74
2022/10/21 13:20:13;;;;;;;;;;;20.30;99.90;;;;;;5054781;28;19905;-74
2022/10/21 13:22:40;;;;;;;;;;;20.30;99.90;;;;;;5054702;28;20280;-73
2022/10/21 13:25:09;;;;;;;;;;;20.30;99.90;;;;;;5054658;28;19955;-74
2022/10/21 13:27:36;;;;;;;;;;;20.30;99.90;;;;;;5055185;28;19911;-74
2022/10/21 13:30:05;;;;;;;;;;;20.40;99.90;;;;;;5036634;28;20322;-74
2022/10/21 13:32:35;;;;;;;;;;;20.30;99.90;;;;;;5054661;28;19975;-74
2022/10/21 13:35:18;;;;;;;;;;;20.30;99.90;;;;;;5054264;28;19911;-74
2022/10/21 13:37:50;;;;;;;;;;;20.40;99.90;;;;;;5054682;28;19905;-74
2022/10/21 13:40:17;;;;;;;;;;;20.40;99.90;;;;;;5054934;28;19896;-74
2022/10/21 13:42:45;;;;;;;;;;;20.40;99.90;;;;;;5054249;28;20414;-75
2022/10/21 13:45:24;;;;;;;;;;;20.50;99.90;;;;;;5054318;28;19908;-75
2022/10/21 13:47:58;;;;;;;;;;;20.60;99.90;;;;;;5054328;28;19912;-74
2022/10/21 13:50:29;;;;;;;;;;;20.50;99.90;;;;;;5054235;28;19912;-75
2022/10/21 13:52:55;;;;;;;;;;;20.40;99.90;;;;;;5036067;28;19911;-73
2022/10/21 13:55:24;;;;;;;;;;;20.30;99.90;;;;;;5054117;28;19905;-74
2022/10/21 13:57:50;;;;;;;;;;;20.10;99.90;;;;;;5054346;28;19911;-73
2022/10/21 14:00:18;;;;;;;;;;;20.00;99.90;;;;;;5054081;28;19905;-74
2022/10/21 14:03:04;;;;;;;;;;;19.90;99.90;;;;;;5053955;28;19911;-74
2022/10/21 14:05:31;;;;;;;;;;;19.70;99.90;;;;;;5054570;28;20375;-74
2022/10/21 14:07:57;;;;;;;;;;;19.50;99.90;;;;;;5053931;28;19905;-75
2022/10/21 14:10:23;;;;;;;;;;;19.40;99.90;;;;;;5054017;28;19912;-74
2022/10/21 14:12:49;;;;;;;;;;;19.30;99.90;;;;;;5053330;28;19904;-74
2022/10/21 14:15:18;;;;;;;;;;;19.30;99.90;;;;;;5054376;28;19958;-73
2022/10/21 14:17:50;;;;;;;;;;;19.30;99.90;;;;;;5053709;28;19912;-74
2022/10/21 14:20:20;;;;;;;;;;;19.20;99.90;;;;;;5054106;28;19927;-74
2022/10/21 14:22:47;;;;;;;;;;;19.20;99.90;;;;;;5053789;28;20353;-74
2022/10/21 14:25:14;;;;;;;;;;;19.10;99.90;;;;;;5053970;28;20061;-74